Date,TemperatureHighF,TemperatureAvgF,TemperatureLowF,DewpointHighF,DewpointAvgF,DewpointLowF,HumidityHigh,HumidityAvg,HumidityLow,PressureMaxIn,PressureMinIn,WindSpeedMaxMPH,WindSpeedAvgMPH,GustSpeedMaxMPH,PrecipitationSumIn
2014-2-1,50.9,41.9,35.1,-99.9,-99.9,-99.9,0,0,100,0.00,40.00,3,1,10,0.00
2014-2-2,57.7,48.8,42.1,-99.9,-99.9,-99.9,0,0,100,0.00,40.00,2,1,13,0.02
2014-2-3,51.2,46.2,37.6,-99.9,-99.9,-99.9,0,0,100,0.00,40.00,5,2,26,1.09
2014-2-4,36.7,33.8,30.7,-99.9,-99.9,-99.9,0,0,100,0.00,40.00,2,0,9,0.19
2014-2-5,48.9,39.5,28.4,-99.9,-99.9,-99.9,0,0,100,0.00,40.00,6,3,25,0.08
2014-2-6,35.5,28.6,21.0,-99.9,-99.9,-99.9,0,0,100,0.00,40.00,5,2,16,0.00
2014-2-7,40.0,32.0,25.0,-99.9,-99.9,-99.9,0,0,100,0.00,40.00,2,0,11,0.00
2014-2-8,43.3,35.8,32.6,-99.9,-99.9,-99.9,0,0,100,0.00,40.00,2,0,11,0.00
2014-2-9,44.6,37.0,31.6,-99.9,-99.9,-99.9,0,0,100,0.00,40.00,3,1,20,0.00
2014-2-10,34.8,32.2,29.0,-99.9,-99.9,-99.9,0,0,100,0.00,40.00,3,1,11,0.07
2014-2-11,29.3,26.5,23.3,-99.9,-99.9,-99.9,0,0,100,0.00,40.00,0,0,0,0.00
2014-2-12,27.0,21.5,18.1,-99.9,-99.9,-99.9,0,0,100,0.00,40.00,0,0,0,0.00
2014-2-13,33.0,28.3,26.1,-99.9,-99.9,-99.9,0,0,100,0.00,40.00,6,2,21,0.06
2014-2-14,45.1,35.6,26.6,-99.9,-99.9,-99.9,0,0,100,0.00,40.00,6,3,21,0.49
2014-2-15,35.8,28.7,20.8,-99.9,-99.9,-99.9,0,0,100,0.00,40.00,7,3,24,0.03
2014-2-16,42.1,33.5,23.6,-99.9,-99.9,-99.9,0,0,100,0.00,40.00,4,2,18,0.05
2014-2-17,38.1,33.1,29.9,-99.9,-99.9,-99.9,0,0,100,0.00,40.00,3,1,12,0.00
2014-2-18,51.0,40.6,32.2,-99.9,-99.9,-99.9,0,0,100,0.00,40.00,4,2,13,0.04
2014-2-19,56.8,48.0,42.4,-99.9,-99.9,-99.9,0,0,100,0.00,40.00,4,2,21,0.10
2014-2-20,54.3,49.6,44.6,-99.9,-99.9,-99.9,0,0,100,0.00,40.00,4,1,14,0.00
2014-2-21,53.0,45.5,33.9,-99.9,-99.9,-99.9,0,0,100,0.00,40.00,6,2,29,0.74
2014-2-22,54.0,42.4,34.8,-99.9,-99.9,-99.9,0,0,100,0.00,40.00,3,1,12,0.00
2014-2-23,58.7,47.5,39.0,-99.9,-99.9,-99.9,0,0,100,0.00,40.00,3,1,13,0.00
2014-2-24,47.0,39.8,32.9,-99.9,-99.9,-99.9,0,0,100,0.00,40.00,3,2,16,0.00
2014-2-25,50.0,40.9,35.4,-99.9,-99.9,-99.9,0,0,100,0.00,40.00,4,2,16,0.00
2014-2-26,39.5,32.6,24.7,-99.9,-99.9,-99.9,0,0,100,0.00,40.00,4,2,16,0.00
2014-2-27,39.7,29.1,21.7,-99.9,-99.9,-99.9,0,0,100,0.00,40.00,6,3,30,0.00
2014-2-28,37.7,29.1,21.0,-99.9,-99.9,-99.9,0,0,100,0.00,40.00,5,2,11,0.00